createdAt,value
2023-04-16T00:04:42.563Z,99960.80
2023-04-16T00:09:49.553Z,99964.12
2023-04-16T00:14:56.502Z,99964.88
2023-04-16T00:20:03.500Z,99963.65
2023-04-16T00:25:10.994Z,99963.98
2023-04-16T00:30:18.123Z,99957.02
2023-04-16T00:35:25.257Z,99963.84
2023-04-16T00:40:32.414Z,99966.38
2023-04-16T00:45:39.602Z,99968.02
2023-04-16T00:50:46.752Z,99974.04
2023-04-16T00:55:53.724Z,99973.74
2023-04-16T01:01:00.813Z,99974.55
2023-04-16T01:06:08.878Z,99976.23
2023-04-16T01:11:16.822Z,99975.19
2023-04-16T01:16:23.898Z,99990.75
2023-04-16T01:21:31.607Z,99994.55
2023-04-16T01:26:39.251Z,99996.58
2023-04-16T01:31:46.966Z,99999.42
2023-04-16T01:37:06.560Z,99997.09
2023-04-16T01:42:13.345Z,99998.73
2023-04-16T01:47:20.400Z,99998.11
2023-04-16T01:52:27.391Z,99991.99
2023-04-16T01:57:34.516Z,99987.73
2023-04-16T02:02:42.501Z,99991.51
2023-04-16T02:07:49.655Z,99995.09
2023-04-16T02:12:56.994Z,99996.81
2023-04-16T02:18:04.652Z,100000.44
2023-04-16T02:23:14.047Z,100004.21
2023-04-16T02:28:21.654Z,100009.79
2023-04-16T02:33:28.794Z,100014.15
2023-04-16T02:38:41.467Z,100020.63
2023-04-16T02:43:49.022Z,100024.48
2023-04-16T02:48:56.230Z,100028.35
2023-04-16T02:54:03.625Z,100029.47
2023-04-16T02:59:11.103Z,100034.16
2023-04-16T03:04:18.454Z,100038.98
2023-04-16T03:09:25.969Z,100043.96
2023-04-16T03:14:33.096Z,100048.44
2023-04-16T03:19:39.962Z,100055.19
2023-04-16T03:24:46.948Z,100062.59
2023-04-16T03:29:54.191Z,100064.70
2023-04-16T03:35:01.873Z,100069.36
2023-04-16T03:40:10.328Z,100074.91
2023-04-16T03:45:18.092Z,100081.69
2023-04-16T03:50:25.807Z,100080.42
2023-04-16T03:55:33.234Z,100084.30
2023-04-16T04:00:42.372Z,100095.04
2023-04-16T04:05:51.922Z,100097.24
2023-04-16T04:11:04.527Z,100102.16
2023-04-16T04:16:12.492Z,100104.50
2023-04-16T04:21:19.584Z,100115.06
2023-04-16T04:26:26.577Z,100121.02
2023-04-16T04:31:33.729Z,100127.31
2023-04-16T04:36:41.622Z,100132.42
2023-04-16T04:41:48.963Z,100134.82
2023-04-16T04:46:57.773Z,100133.94
2023-04-16T04:52:06.153Z,100136.14
2023-04-16T04:57:13.144Z,100135.27
2023-04-16T05:02:21.966Z,100137.46
2023-04-16T05:07:28.995Z,100140.98
2023-04-16T05:12:36.032Z,100141.11
2023-04-16T05:17:43.105Z,100147.96
2023-04-16T05:22:50.369Z,100154.14
2023-04-16T05:27:57.257Z,100160.74
2023-04-16T05:33:04.435Z,100163.95
2023-04-16T05:38:11.449Z,100173.78
2023-04-16T05:43:18.601Z,100182.75
2023-04-16T05:48:25.579Z,100187.67
2023-04-16T05:53:32.719Z,100190.41
2023-04-16T05:58:39.739Z,100193.11
2023-04-16T06:03:46.889Z,100200.32
2023-04-16T06:08:53.872Z,100204.66
2023-04-16T06:14:00.871Z,100214.81
2023-04-16T06:19:08.096Z,100212.30
2023-04-16T06:24:15.674Z,100215.17
2023-04-16T06:29:27.926Z,100221.08
2023-04-16T06:34:41.707Z,100230.39
2023-04-16T06:39:48.582Z,100232.85
2023-04-16T06:44:55.785Z,100234.93
2023-04-16T06:50:02.662Z,100235.83
2023-04-16T06:55:10.784Z,100233.34
2023-04-16T07:00:18.086Z,100236.89
2023-04-16T07:05:25.724Z,100233.45
2023-04-16T07:10:32.883Z,100240.48
2023-04-16T07:15:39.743Z,100249.41
2023-04-16T07:20:46.746Z,100256.77
2023-04-16T07:25:53.792Z,100265.89
2023-04-16T07:31:01.067Z,100271.74
2023-04-16T07:36:08.573Z,100272.80
2023-04-16T07:41:16.475Z,100277.23
2023-04-16T07:46:24.696Z,100283.39
2023-04-16T07:51:32.339Z,100287.48
2023-04-16T07:56:39.248Z,100289.01
2023-04-16T08:01:46.180Z,100290.21
2023-04-16T08:06:53.055Z,100295.89
2023-04-16T08:12:01.240Z,100298.65
2023-04-16T08:17:08.152Z,100302.29
2023-04-16T08:22:15.381Z,100300.33
2023-04-16T08:27:22.480Z,100300.36
2023-04-16T08:32:30.005Z,100296.72
2023-04-16T08:37:39.557Z,100299.95
2023-04-16T08:42:50.846Z,100297.83
2023-04-16T08:47:58.153Z,100306.34
2023-04-16T08:53:07.325Z,100308.10
2023-04-16T08:58:19.824Z,100316.19
2023-04-16T09:03:27.261Z,100325.95
2023-04-16T09:08:35.830Z,100329.23
2023-04-16T09:13:42.733Z,100329.94
2023-04-16T09:18:49.600Z,100328.09
2023-04-16T09:23:57.262Z,100332.61
2023-04-16T09:29:04.324Z,100331.30
2023-04-16T09:34:11.791Z,100331.34
2023-04-16T09:39:21.448Z,100332.39
2023-04-16T09:44:38.009Z,100335.06
2023-04-16T09:49:45.385Z,100339.54
2023-04-16T09:54:54.601Z,100348.69
2023-04-16T10:00:07.842Z,100347.85
2023-04-16T10:05:18.927Z,100348.58
2023-04-16T10:10:26.529Z,100354.09
2023-04-16T10:15:33.915Z,100354.79
2023-04-16T10:20:41.700Z,100352.42
2023-04-16T10:25:49.098Z,100346.87
2023-04-16T10:30:58.021Z,100347.55
2023-04-16T10:36:12.828Z,100349.88
2023-04-16T10:41:20.813Z,100345.44
2023-04-16T10:46:32.510Z,100346.64
2023-04-16T10:51:39.535Z,100347.94
2023-04-16T10:56:48.059Z,100348.33
2023-04-16T11:01:59.493Z,100354.83
2023-04-16T11:07:14.894Z,100351.69
2023-04-16T11:12:24.493Z,100353.17
2023-04-16T11:17:34.215Z,100349.75
2023-04-16T11:22:41.579Z,100347.76
2023-04-16T11:27:48.437Z,100346.58
2023-04-16T11:32:55.538Z,100342.54
2023-04-16T11:38:02.774Z,100350.92
2023-04-16T11:43:17.817Z,100353.41
2023-04-16T11:48:24.942Z,100357.83
2023-04-16T11:53:32.249Z,100356.17
2023-04-16T11:58:43.148Z,100352.91
2023-04-16T12:03:50.704Z,100351.20
2023-04-16T12:08:57.954Z,100352.98
2023-04-16T12:14:11.872Z,100353.75
2023-04-16T12:19:19.391Z,100351.74
2023-04-16T12:24:27.766Z,100349.58
2023-04-16T12:29:34.836Z,100341.44
2023-04-16T12:34:52.871Z,100342.02
2023-04-16T12:39:59.877Z,100336.67
2023-04-16T12:45:08.179Z,100335.96
2023-04-16T12:50:15.281Z,100332.67
2023-04-16T12:55:22.267Z,100332.77
2023-04-16T13:00:29.123Z,100332.01
2023-04-16T13:05:36.548Z,100333.21
2023-04-16T13:10:43.650Z,100340.16
2023-04-16T13:15:50.930Z,100338.54
2023-04-16T13:20:57.716Z,100338.45
2023-04-16T13:26:04.649Z,100334.08
2023-04-16T13:31:11.467Z,100324.51
2023-04-16T13:36:18.481Z,100327.25
2023-04-16T13:41:25.450Z,100320.15
2023-04-16T13:46:32.566Z,100321.85
2023-04-16T13:51:39.646Z,100320.52
2023-04-16T13:56:46.512Z,100320.50
2023-04-16T14:01:53.735Z,100322.52
2023-04-16T14:07:01.071Z,100322.17
2023-04-16T14:12:08.629Z,100320.92
2023-04-16T14:17:15.519Z,100323.34
2023-04-16T14:22:22.357Z,100317.84
2023-04-16T14:27:29.834Z,100313.63
2023-04-16T14:32:37.494Z,100316.91
2023-04-16T14:37:44.688Z,100313.33
2023-04-16T14:42:51.539Z,100316.96
2023-04-16T14:47:59.639Z,100323.28
2023-04-16T14:53:06.843Z,100323.95
2023-04-16T14:58:13.693Z,100321.48
2023-04-16T15:03:20.891Z,100318.99
2023-04-16T15:08:27.967Z,100324.11
2023-04-16T15:13:34.903Z,100322.63
2023-04-16T15:18:41.850Z,100325.48
2023-04-16T15:23:48.832Z,100323.48
2023-04-16T15:28:55.692Z,100329.41
2023-04-16T15:34:02.498Z,100330.73
2023-04-16T15:39:09.972Z,100331.77
2023-04-16T15:44:17.466Z,100331.61
2023-04-16T15:49:24.861Z,100333.02
2023-04-16T15:54:32.373Z,100335.55
2023-04-16T15:59:39.458Z,100334.84
2023-04-16T16:04:49.032Z,100333.11
2023-04-16T16:09:56.331Z,100336.20
2023-04-16T16:15:03.767Z,100338.09
2023-04-16T16:20:12.803Z,100342.96
2023-04-16T16:25:18.429Z,100345.58
2023-04-16T16:30:26.339Z,100342.58
2023-04-16T16:35:33.898Z,100346.60
2023-04-16T16:40:40.878Z,100353.74
2023-04-16T16:45:47.610Z,100364.27
2023-04-16T16:50:54.825Z,100373.60
2023-04-16T16:56:01.806Z,100374.60
2023-04-16T17:01:08.800Z,100378.27
2023-04-16T17:06:15.837Z,100383.44
2023-04-16T17:11:22.911Z,100391.95
2023-04-16T17:16:29.859Z,100402.89
2023-04-16T17:21:36.900Z,100405.61
2023-04-16T17:26:44.448Z,100414.63
2023-04-16T17:31:51.399Z,100417.66
2023-04-16T17:36:58.490Z,100421.53
2023-04-16T17:42:05.580Z,100426.02
2023-04-16T17:47:12.550Z,100435.20
2023-04-16T17:52:21.365Z,100451.78
2023-04-16T17:57:28.258Z,100457.39
2023-04-16T18:02:36.062Z,100461.23
2023-04-16T18:07:43.757Z,100462.77
2023-04-16T18:12:50.792Z,100475.33
2023-04-16T18:17:57.796Z,100490.38
2023-04-16T18:23:04.933Z,100497.86
2023-04-16T18:28:14.016Z,100506.11
2023-04-16T18:33:48.834Z,100504.82
2023-04-16T18:39:00.262Z,100509.38
2023-04-16T18:44:10.985Z,100511.90
2023-04-16T18:49:18.143Z,100508.54
2023-04-16T18:54:25.937Z,100515.88
2023-04-16T18:59:34.590Z,100523.48
2023-04-16T19:04:42.030Z,100531.61
2023-04-16T19:09:48.925Z,100537.09
2023-04-16T19:14:56.023Z,100537.98
2023-04-16T19:20:08.142Z,100549.70
2023-04-16T19:25:15.822Z,100561.42
2023-04-16T19:30:22.959Z,100572.08
2023-04-16T19:35:30.270Z,100571.89
2023-04-16T19:40:37.233Z,100565.17
2023-04-16T19:45:47.875Z,100563.23
2023-04-16T19:50:54.776Z,100564.59
2023-04-16T19:56:01.759Z,100563.52
2023-04-16T20:01:12.716Z,100565.62
2023-04-16T20:06:19.897Z,100567.17
2023-04-16T20:11:27.325Z,100572.36
2023-04-16T20:16:35.134Z,100571.02
2023-04-16T20:21:45.605Z,100573.80
2023-04-16T20:26:56.537Z,100575.86
2023-04-16T20:32:03.545Z,100576.08
2023-04-16T20:37:10.436Z,100574.03
2023-04-16T20:42:18.092Z,100571.65
2023-04-16T20:47:25.055Z,100567.55
2023-04-16T20:52:32.745Z,100571.93
2023-04-16T20:57:39.703Z,100572.83
2023-04-16T21:02:46.810Z,100579.73
2023-04-16T21:07:55.757Z,100581.85
2023-04-16T21:13:02.884Z,100587.00
2023-04-16T21:18:10.539Z,100589.33
2023-04-16T21:23:17.436Z,100592.77
2023-04-16T21:28:27.501Z,100585.16
2023-04-16T21:33:34.352Z,100579.82
2023-04-16T21:38:41.373Z,100577.77
2023-04-16T21:43:48.254Z,100571.41
2023-04-16T21:48:55.081Z,100570.77
2023-04-16T21:54:01.973Z,100569.02
2023-04-16T21:59:09.051Z,100563.34
2023-04-16T22:04:16.257Z,100566.52
2023-04-16T22:09:24.886Z,100570.16
2023-04-16T22:14:32.064Z,100566.67
2023-04-16T22:19:39.548Z,100565.23
2023-04-16T22:24:46.364Z,100565.50
2023-04-16T22:29:53.185Z,100567.99
2023-04-16T22:35:00.161Z,100567.40
2023-04-16T22:40:11.911Z,100566.33
2023-04-16T22:45:19.024Z,100567.13
2023-04-16T22:50:25.991Z,100561.44
2023-04-16T22:55:32.787Z,100567.54
2023-04-16T23:00:39.768Z,100569.17
2023-04-16T23:05:46.644Z,100563.77
2023-04-16T23:10:53.716Z,100567.47
2023-04-16T23:16:00.921Z,100567.22
2023-04-16T23:21:08.511Z,100566.09
2023-04-16T23:26:15.545Z,100565.34
2023-04-16T23:31:22.467Z,100565.64
2023-04-16T23:36:29.441Z,100565.19
2023-04-16T23:41:36.442Z,100568.48
2023-04-16T23:46:43.384Z,100568.67
2023-04-16T23:51:50.303Z,100565.96
2023-04-16T23:56:57.986Z,100565.98
